Time;durP1;ratioP1;P1;durP2;ratioP2;P2;SDS_P1;SDS_P2;PMS_P1;PMS_P2;Temp;Humidity;BMP_temperature;BMP_pressure;BME280_temperature;BME280_humidity;BME280_pressure;Samples;Min_cycle;Max_cycle;Signal;HPM_P1;HPM_P2
2022/02/06 00:01:42;;;;;;;1.00;0.40;;;;;;;20.20;49.65;99041.28;5016177;28;20095;-62
2022/02/06 00:04:08;;;;;;;1.15;0.20;;;;;;;20.15;49.53;99022.84;5034200;28;20064;-61
2022/02/06 00:06:35;;;;;;;1.00;0.40;;;;;;;20.12;49.38;99021.41;5033346;28;20037;-62
2022/02/06 00:09:00;;;;;;;1.20;0.20;;;;;;;20.06;49.75;99019.59;5033164;28;20032;-62
2022/02/06 00:11:25;;;;;;;1.02;0.38;;;;;;;20.05;49.25;99012.47;5016028;28;20392;-62
2022/02/06 00:13:50;;;;;;;1.95;0.35;;;;;;;20.04;49.84;99015.44;5033722;28;20500;-61
2022/02/06 00:16:16;;;;;;;0.90;0.38;;;;;;;20.02;50.23;99010.22;5033972;28;20044;-62
2022/02/06 00:18:43;;;;;;;1.23;0.30;;;;;;;20.05;50.10;98996.13;5033562;28;20075;-62
2022/02/06 00:21:12;;;;;;;1.88;0.22;;;;;;;20.00;49.96;98995.97;5033706;28;20022;-62
2022/02/06 00:23:38;;;;;;;0.70;0.20;;;;;;;20.00;50.43;98993.25;5033553;28;20031;-61
2022/02/06 00:26:14;;;;;;;0.75;0.30;;;;;;;19.90;49.61;98987.47;5033598;28;20030;-62
2022/02/06 00:28:45;;;;;;;1.75;0.22;;;;;;;19.94;49.40;98974.22;5033439;28;20022;-61
2022/02/06 00:31:21;;;;;;;1.90;0.50;;;;;;;19.92;49.64;98963.53;5033614;28;20033;-62
2022/02/06 00:39:05;;;;;;;3.83;0.83;;;;;;;19.87;49.62;98955.22;5033510;28;20061;-62
2022/02/06 00:41:32;;;;;;;0.52;0.22;;;;;;;19.81;49.80;98956.09;5033148;28;20468;-61
2022/02/06 00:44:02;;;;;;;0.93;0.40;;;;;;;19.78;49.87;98934.75;5033294;28;20033;-61
2022/02/06 00:46:28;;;;;;;1.45;0.32;;;;;;;19.74;49.49;98934.38;5033055;28;20063;-61
2022/02/06 00:48:57;;;;;;;2.10;0.30;;;;;;;19.75;49.54;98924.28;5033196;28;20385;-61
2022/02/06 00:51:36;;;;;;;3.30;0.35;;;;;;;19.76;49.79;98915.88;5032813;28;20033;-62
2022/02/06 00:54:02;;;;;;;0.98;0.20;;;;;;;19.71;49.84;98907.56;5032897;28;20132;-62
2022/02/06 00:56:29;;;;;;;1.55;0.32;;;;;;;19.72;49.81;98909.22;5033168;28;20108;-61
2022/02/06 00:58:54;;;;;;;1.52;0.28;;;;;;;19.68;50.10;98902.56;5032929;28;20036;-62
2022/02/06 01:01:19;;;;;;;0.77;0.30;;;;;;;19.72;49.57;98883.84;5032900;28;20021;-61
2022/02/06 01:03:45;;;;;;;0.77;0.30;;;;;;;19.71;49.72;98882.19;5032748;28;20461;-62
2022/02/06 01:06:12;;;;;;;1.40;0.22;;;;;;;19.68;50.17;98879.94;5017873;28;20449;-61
2022/02/06 01:08:37;;;;;;;1.52;0.60;;;;;;;19.70;50.40;98861.44;5012905;28;20038;-63
2022/02/06 01:11:07;;;;;;;0.82;0.22;;;;;;;19.63;49.59;98858.78;5013143;28;20068;-61
2022/02/06 01:13:50;;;;;;;1.25;0.35;;;;;;;19.60;50.06;98851.06;5012839;28;20017;-62
2022/02/06 01:16:22;;;;;;;1.20;0.35;;;;;;;19.59;49.67;98838.50;5013152;28;20105;-61
2022/02/06 01:18:58;;;;;;;1.15;0.30;;;;;;;19.60;50.03;98837.44;5012457;28;20025;-62
2022/02/06 01:24:07;;;;;;;1.00;0.20;;;;;;;19.54;49.98;98824.72;5013033;28;20029;-61
2022/02/06 01:26:47;;;;;;;2.05;0.40;;;;;;;19.53;49.93;98828.47;5012635;28;20470;-62
2022/02/06 01:31:59;;;;;;;1.88;0.43;;;;;;;19.55;50.08;98803.75;5013043;28;20026;-61
2022/02/06 01:34:35;;;;;;;0.85;0.28;;;;;;;19.51;50.07;98790.56;5014312;28;20026;-61
2022/02/06 01:37:22;;;;;;;0.20;0.20;;;;;;;19.50;49.74;98779.88;5032565;28;20029;-61
2022/02/06 01:40:12;;;;;;;1.27;0.50;;;;;;;19.47;50.13;98775.69;5032168;28;20489;-61
2022/02/06 01:42:46;;;;;;;0.50;0.00;;;;;;;19.48;50.34;98774.66;5032273;28;20025;-61
2022/02/06 02:02:22;;;;;;;1.08;0.30;;;;;;;19.41;50.14;98700.34;4913593;29;20071;-61
2022/02/06 02:23:51;;;;;;;1.13;0.32;;;;;;;19.32;49.42;98620.00;4913277;29;20051;-61
2022/02/06 02:32:04;;;;;;;1.17;0.30;;;;;;;19.35;49.50;98591.47;4953592;28;20049;-61
2022/02/06 02:48:00;;;;;;;2.05;0.60;;;;;;;19.23;49.81;98550.56;5035702;28;20025;-61
2022/02/06 02:50:26;;;;;;;0.90;0.28;;;;;;;19.23;50.30;98580.50;5035336;28;20022;-62
2022/02/06 02:53:02;;;;;;;1.27;0.30;;;;;;;19.26;50.08;98590.94;5035449;28;20033;-61
2022/02/06 02:58:22;;;;;;;0.80;0.20;;;;;;;19.21;50.12;98579.91;5035436;28;20025;-61
2022/02/06 03:01:08;;;;;;;1.20;0.20;;;;;;;19.25;49.98;98575.66;5035135;28;20495;-62
2022/02/06 03:03:37;;;;;;;1.75;0.35;;;;;;;19.17;49.36;98573.28;5035032;28;20492;-61
2022/02/06 03:06:05;;;;;;;1.73;0.30;;;;;;;19.19;50.42;98571.16;5034956;28;20053;-61
2022/02/06 03:08:32;;;;;;;1.10;0.30;;;;;;;19.51;51.75;98556.22;5034940;28;20025;-61
2022/02/06 03:11:00;;;;;;;0.82;0.20;;;;;;;19.74;53.73;98560.91;5033283;28;20045;-62
2022/02/06 03:13:36;;;;;;;0.55;0.15;;;;;;;19.82;54.88;98548.84;5034968;28;20440;-61
2022/02/06 03:16:14;;;;;;;2.90;0.60;;;;;;;19.92;56.71;98537.31;5035076;28;20381;-61
2022/02/06 03:18:59;;;;;;;0.88;0.20;;;;;;;20.00;57.71;98540.53;5035037;28;20057;-62
2022/02/06 03:21:28;;;;;;;1.05;0.10;;;;;;;20.05;59.78;98524.28;5034832;28;20479;-61
2022/02/06 03:23:57;;;;;;;0.80;0.30;;;;;;;20.09;59.75;98509.09;5034888;28;20032;-62
2022/02/06 03:26:25;;;;;;;0.55;0.17;;;;;;;20.08;61.42;98512.88;5034784;28;20479;-61
2022/02/06 03:28:53;;;;;;;0.68;0.20;;;;;;;19.79;60.91;98505.66;5035015;28;20409;-61
2022/02/06 03:31:18;;;;;;;0.60;0.10;;;;;;;19.61;59.85;98498.41;5017289;28;20431;-61
2022/02/06 03:33:47;;;;;;;1.05;0.20;;;;;;;19.63;57.16;98490.84;5034329;28;20065;-61
2022/02/06 03:36:12;;;;;;;1.85;0.20;;;;;;;19.53;57.12;98480.50;5014889;28;20026;-62
2022/02/06 03:38:37;;;;;;;0.93;0.30;;;;;;;19.51;55.84;98482.63;5012256;28;20104;-61
2022/02/06 03:41:07;;;;;;;0.95;0.20;;;;;;;19.50;54.26;98475.53;5034498;28;20037;-62
2022/02/06 03:43:41;;;;;;;1.20;0.38;;;;;;;19.41;53.52;98482.38;5034137;28;20026;-61
2022/02/06 03:46:12;;;;;;;1.17;0.50;;;;;;;19.36;53.37;98463.19;5034520;28;20028;-61
2022/02/06 03:48:46;;;;;;;0.60;0.20;;;;;;;19.37;52.17;98451.22;5034190;28;20068;-61
2022/02/06 03:51:20;;;;;;;1.13;0.30;;;;;;;19.34;52.67;98448.97;5034376;28;20055;-61
2022/02/06 03:53:50;;;;;;;2.15;0.32;;;;;;;19.30;52.42;98445.03;5034033;28;20489;-61
2022/02/06 03:56:16;;;;;;;1.83;0.20;;;;;;;19.30;51.56;98441.50;5034639;28;20037;-61
2022/02/06 03:58:42;;;;;;;2.58;0.30;;;;;;;19.27;51.36;98431.91;5016148;28;20022;-61
2022/02/06 04:01:07;;;;;;;1.83;0.40;;;;;;;19.25;51.21;98423.13;5016346;28;20087;-61
2022/02/06 04:03:32;;;;;;;0.22;0.20;;;;;;;19.27;51.11;98410.09;5034192;28;20031;-61
2022/02/06 04:05:58;;;;;;;0.60;0.30;;;;;;;19.23;50.81;98403.47;5034029;28;20026;-61
2022/02/06 04:08:24;;;;;;;0.60;0.30;;;;;;;19.26;50.69;98408.44;5034012;28;20026;-61
2022/02/06 04:10:51;;;;;;;0.93;0.20;;;;;;;19.21;51.22;98405.59;5033970;28;20025;-62
2022/02/06 04:13:23;;;;;;;2.03;0.40;;;;;;;19.21;50.69;98400.16;5033965;28;20033;-61
2022/02/06 04:15:56;;;;;;;0.55;0.55;;;;;;;19.22;51.26;98407.28;5033807;28;20048;-62
2022/02/06 04:18:41;;;;;;;0.93;0.25;;;;;;;19.18;50.06;98395.19;5033822;28;20462;-61
2022/02/06 04:21:06;;;;;;;1.85;0.25;;;;;;;19.19;50.88;98385.97;5033702;28;20475;-61
2022/02/06 04:23:31;;;;;;;1.20;0.30;;;;;;;19.20;50.40;98377.53;5015823;28;20108;-61
2022/02/06 04:25:57;;;;;;;0.68;0.20;;;;;;;19.14;50.26;98370.31;5033710;28;20091;-61
2022/02/06 04:28:22;;;;;;;1.40;0.65;;;;;;;19.14;50.55;98359.41;5033648;28;20028;-61
2022/02/06 04:30:48;;;;;;;0.98;0.30;;;;;;;19.16;50.00;98359.19;5033513;28;20087;-61
2022/02/06 04:33:13;;;;;;;0.60;0.20;;;;;;;19.13;50.50;98351.47;5033524;28;20025;-61
2022/02/06 04:35:40;;;;;;;1.60;0.32;;;;;;;19.12;50.23;98358.00;5033022;28;20029;-61
2022/02/06 04:38:29;;;;;;;2.50;0.20;;;;;;;19.12;49.97;98341.66;5033470;28;20535;-61
2022/02/06 04:41:14;;;;;;;1.73;0.22;;;;;;;19.13;49.92;98338.69;5033340;28;20022;-61
2022/02/06 05:11:22;;;;;;;1.50;0.38;;;;;;;21.81;52.64;98330.28;4933220;29;20042;-61
2022/02/06 05:34:10;;;;;;;1.38;0.30;;;;;;;22.12;47.22;98284.19;4947061;29;20043;-62
2022/02/06 05:36:35;;;;;;;0.60;0.45;;;;;;;22.18;46.74;98272.25;4951812;29;20066;-61
2022/02/06 05:39:02;;;;;;;0.40;0.20;;;;;;;22.14;46.03;98271.06;4951847;29;20491;-62
2022/02/06 05:41:27;;;;;;;0.93;0.30;;;;;;;22.19;46.31;98268.41;4951874;29;20411;-62
2022/02/06 05:43:52;;;;;;;1.42;0.43;;;;;;;22.24;45.90;98271.19;4952018;29;20090;-61
2022/02/06 05:46:17;;;;;;;1.65;0.30;;;;;;;22.28;46.24;98277.81;4952040;29;20478;-61
2022/02/06 05:48:43;;;;;;;2.55;0.63;;;;;;;22.32;45.36;98278.94;4951827;29;20031;-61
2022/02/06 05:51:08;;;;;;;1.77;0.30;;;;;;;22.31;45.45;98270.97;4951837;29;20082;-61
2022/02/06 05:53:33;;;;;;;1.70;0.50;;;;;;;22.36;45.04;98263.66;4951653;29;20073;-61
2022/02/06 05:55:59;;;;;;;1.80;0.22;;;;;;;22.33;45.40;98269.63;4952229;29;20123;-62
2022/02/06 05:58:24;;;;;;;1.40;0.45;;;;;;;22.41;45.03;98266.44;4983348;28;20041;-61
2022/02/06 06:00:50;;;;;;;0.80;0.20;;;;;;;22.38;44.84;98264.22;5011691;28;20030;-62
2022/02/06 06:03:15;;;;;;;1.30;0.47;;;;;;;22.37;44.89;98254.38;5012242;28;20129;-62
2022/02/06 06:05:40;;;;;;;1.85;0.50;;;;;;;22.43;45.45;98253.31;5012853;28;20459;-62
2022/02/06 06:08:05;;;;;;;1.20;0.20;;;;;;;22.43;44.98;98263.44;5016617;28;20457;-62
2022/02/06 06:10:31;;;;;;;2.15;0.20;;;;;;;22.46;45.36;98263.75;5016278;28;20030;-62
2022/02/06 06:12:57;;;;;;;1.58;0.30;;;;;;;22.48;44.75;98269.78;5016338;28;20034;-61
2022/02/06 06:15:23;;;;;;;1.77;0.20;;;;;;;22.48;44.52;98256.09;5016702;28;20377;-62
2022/02/06 06:17:48;;;;;;;1.40;0.30;;;;;;;22.51;45.08;98261.06;5016283;28;20025;-61
2022/02/06 06:20:17;;;;;;;0.73;0.32;;;;;;;22.52;44.84;98261.91;5016632;28;20030;-62
2022/02/06 06:22:42;;;;;;;1.77;0.50;;;;;;;22.57;44.85;98266.59;5016193;28;20018;-62
2022/02/06 06:25:10;;;;;;;1.52;0.30;;;;;;;22.54;44.64;98256.16;5016140;28;20026;-62
2022/02/06 06:27:35;;;;;;;1.40;0.63;;;;;;;22.56;45.19;98251.25;5016025;28;20057;-62
2022/02/06 06:30:01;;;;;;;0.95;0.25;;;;;;;22.57;44.46;98247.41;5016191;28;20100;-62
2022/02/06 06:32:26;;;;;;;0.77;0.22;;;;;;;22.62;45.08;98242.78;5016013;28;20381;-62
2022/02/06 06:34:54;;;;;;;1.15;0.20;;;;;;;22.62;45.00;98239.22;5015803;28;20108;-62
2022/02/06 06:37:20;;;;;;;1.25;0.38;;;;;;;22.63;44.72;98240.88;5015949;28;20026;-62
2022/02/06 06:39:48;;;;;;;1.58;0.20;;;;;;;22.64;44.60;98235.13;5016004;28;20135;-62
2022/02/06 06:42:14;;;;;;;2.05;0.20;;;;;;;22.64;45.06;98223.38;5014948;28;20425;-62
2022/02/06 06:44:40;;;;;;;0.80;0.20;;;;;;;22.66;44.63;98245.84;5015674;28;20109;-61
2022/02/06 06:47:06;;;;;;;1.48;0.20;;;;;;;22.67;44.41;98242.00;5015963;28;20113;-62
2022/02/06 06:49:32;;;;;;;1.05;0.20;;;;;;;22.68;44.53;98249.16;5015598;28;20021;-62
2022/02/06 06:51:59;;;;;;;0.85;0.22;;;;;;;22.69;45.20;98245.34;5015802;28;20421;-61
2022/02/06 06:54:25;;;;;;;1.90;0.22;;;;;;;22.70;44.51;98256.03;5029137;28;20046;-61
2022/02/06 07:02:38;;;;;;;0.77;0.30;;;;;;;22.69;44.41;98256.28;4974222;28;19985;-61
2022/02/06 07:05:04;;;;;;;1.33;0.45;;;;;;;22.70;44.77;98260.69;4973109;28;20177;-61
2022/02/06 07:07:32;;;;;;;2.85;0.63;;;;;;;22.76;45.23;98254.13;4973759;28;20035;-62
2022/02/06 07:09:57;;;;;;;1.15;0.30;;;;;;;22.74;44.78;98248.09;4973914;28;20050;-62
2022/02/06 07:12:23;;;;;;;1.20;0.68;;;;;;;22.77;44.46;98266.75;4973809;28;20030;-62
2022/02/06 07:14:49;;;;;;;0.90;0.20;;;;;;;22.77;45.22;98272.22;4973800;28;20035;-62
2022/02/06 07:17:16;;;;;;;0.80;0.10;;;;;;;22.77;44.93;98272.22;4973131;28;20090;-62
2022/02/06 07:19:42;;;;;;;0.82;0.20;;;;;;;22.78;44.78;98266.47;4973544;28;20045;-61
2022/02/06 07:22:12;;;;;;;1.23;0.30;;;;;;;22.76;44.92;98273.31;4973720;28;20033;-62
2022/02/06 07:24:37;;;;;;;1.45;0.70;;;;;;;22.77;44.72;98278.53;4973428;28;20092;-62
2022/02/06 07:27:14;;;;;;;0.85;0.20;;;;;;;22.80;44.86;98274.44;4973645;28;20368;-62
2022/02/06 07:29:39;;;;;;;1.08;0.30;;;;;;;22.81;45.16;98270.59;4973319;28;20023;-62
2022/02/06 07:32:05;;;;;;;1.05;0.25;;;;;;;22.79;44.86;98276.34;4973724;28;20034;-61
2022/02/06 07:34:30;;;;;;;0.40;0.20;;;;;;;22.86;45.16;98273.44;4973004;28;20410;-61
2022/02/06 07:36:56;;;;;;;1.02;0.30;;;;;;;22.87;45.06;98274.25;5023771;28;20564;-61
2022/02/06 07:39:21;;;;;;;0.70;0.20;;;;;;;22.84;44.81;98270.09;5035109;28;20033;-61
2022/02/06 07:41:46;;;;;;;3.00;0.77;;;;;;;22.82;45.37;98239.41;5034756;28;20071;-61
2022/02/06 07:44:11;;;;;;;0.60;0.57;;;;;;;22.78;44.90;98235.53;5034609;28;20400;-61
2022/02/06 07:46:43;;;;;;;1.75;0.30;;;;;;;22.81;45.16;98232.25;5034254;28;20108;-61
2022/02/06 07:49:09;;;;;;;1.73;0.30;;;;;;;22.87;44.78;98235.91;5034293;28;20018;-61
2022/02/06 07:51:35;;;;;;;1.13;0.30;;;;;;;22.89;44.87;98234.56;5034248;28;20029;-61
2022/02/06 07:54:01;;;;;;;0.32;0.30;;;;;;;22.92;44.81;98227.72;5034281;28;20447;-61
2022/02/06 07:56:26;;;;;;;0.65;0.10;;;;;;;22.89;45.50;98233.72;5034210;28;20076;-61
2022/02/06 07:58:52;;;;;;;1.85;0.20;;;;;;;22.87;44.99;98228.53;5034109;28;20022;-62
2022/02/06 08:01:17;;;;;;;2.00;0.50;;;;;;;22.93;44.84;98234.84;5034420;28;20443;-61
2022/02/06 08:03:42;;;;;;;1.52;0.60;;;;;;;22.88;44.60;98232.91;5027858;28;20029;-62
2022/02/06 08:06:07;;;;;;;1.88;0.30;;;;;;;22.90;45.18;98233.47;5033802;28;20029;-62
2022/02/06 08:08:33;;;;;;;1.35;0.40;;;;;;;22.94;44.88;98236.50;5033911;28;20025;-62
2022/02/06 08:11:01;;;;;;;0.60;0.30;;;;;;;22.93;45.44;98241.16;5033940;28;20037;-61
2022/02/06 08:13:39;;;;;;;0.40;0.30;;;;;;;22.91;44.85;98237.84;5033850;28;20053;-62
2022/02/06 08:16:05;;;;;;;1.23;0.50;;;;;;;22.89;45.08;98245.50;5033989;28;20022;-61
2022/02/06 08:18:31;;;;;;;0.20;0.10;;;;;;;22.93;45.34;98237.59;5033613;28;20025;-62
2022/02/06 08:20:56;;;;;;;2.30;0.68;;;;;;;22.96;44.82;98246.09;5033678;28;20029;-62
2022/02/06 08:23:21;;;;;;;1.42;0.30;;;;;;;22.91;44.90;98253.47;5033801;28;20112;-62
2022/02/06 08:25:47;;;;;;;1.58;0.28;;;;;;;22.98;45.21;98254.03;5033608;28;20389;-62
2022/02/06 08:28:12;;;;;;;5.60;0.63;;;;;;;22.92;45.25;98244.16;5015204;28;20064;-61
2022/02/06 08:30:38;;;;;;;0.57;0.28;;;;;;;22.91;45.11;98247.97;5033603;28;20079;-64
2022/02/06 08:33:05;;;;;;;0.65;0.43;;;;;;;22.94;44.93;98259.22;5033298;28;20028;-62
2022/02/06 08:35:31;;;;;;;0.75;0.22;;;;;;;23.00;44.56;98251.88;5033380;28;20030;-62
2022/02/06 08:37:56;;;;;;;0.82;0.30;;;;;;;22.94;45.43;98252.94;5033525;28;20036;-62
2022/02/06 08:40:22;;;;;;;0.25;0.20;;;;;;;22.96;45.55;98245.28;5033364;28;20053;-62
2022/02/06 08:42:47;;;;;;;1.20;0.40;;;;;;;22.96;45.29;98250.75;5033303;28;20099;-61
2022/02/06 08:45:15;;;;;;;0.68;0.10;;;;;;;22.98;45.20;98249.41;5033310;28;20123;-62
2022/02/06 08:47:46;;;;;;;1.77;0.47;;;;;;;23.00;44.94;98247.22;5033114;28;20021;-62
2022/02/06 08:50:12;;;;;;;1.15;0.10;;;;;;;23.02;45.18;98252.44;5033343;28;20033;-62
2022/02/06 08:52:37;;;;;;;1.27;0.30;;;;;;;23.03;44.77;98246.72;5032993;28;20025;-62
2022/02/06 08:55:06;;;;;;;0.88;0.30;;;;;;;23.02;44.89;98239.59;5032990;28;20045;-61
2022/02/06 08:57:31;;;;;;;0.80;0.30;;;;;;;23.06;45.01;98237.97;5032924;28;20107;-62
2022/02/06 08:59:57;;;;;;;0.50;0.30;;;;;;;23.02;45.32;98245.06;5033060;28;20496;-61
2022/02/06 09:02:23;;;;;;;1.73;0.30;;;;;;;22.99;45.13;98233.78;5032755;28;20041;-62
2022/02/06 09:04:49;;;;;;;0.95;0.40;;;;;;;23.00;44.88;98239.00;5032937;28;20025;-62
2022/02/06 09:07:15;;;;;;;2.42;0.30;;;;;;;23.00;44.87;98230.78;5032757;28;20160;-61
2022/02/06 09:09:49;;;;;;;1.10;0.20;;;;;;;23.04;45.13;98231.91;5032756;28;20488;-62
2022/02/06 09:12:16;;;;;;;0.50;0.20;;;;;;;23.01;44.91;98237.94;5032928;28;20037;-62
2022/02/06 09:14:42;;;;;;;1.48;0.20;;;;;;;23.04;44.86;98233.84;5032655;28;20029;-62
2022/02/06 09:17:09;;;;;;;1.02;0.38;;;;;;;23.08;44.62;98232.22;5032716;28;20048;-62
2022/02/06 09:19:36;;;;;;;0.40;0.10;;;;;;;23.06;45.07;98237.97;5032426;28;20022;-62
2022/02/06 09:22:02;;;;;;;0.95;0.22;;;;;;;23.07;44.85;98230.56;5032813;28;20029;-61
2022/02/06 09:24:28;;;;;;;1.90;0.30;;;;;;;23.05;44.57;98233.56;5032491;28;20491;-62
2022/02/06 09:26:53;;;;;;;1.52;0.17;;;;;;;23.04;45.02;98228.34;5032619;28;20025;-62
2022/02/06 09:29:18;;;;;;;0.75;0.20;;;;;;;23.07;44.88;98228.66;5032803;28;20025;-61
2022/02/06 09:31:50;;;;;;;1.50;0.25;;;;;;;23.06;45.09;98218.78;5032071;28;20025;-62
2022/02/06 09:36:43;;;;;;;0.45;0.10;;;;;;;23.07;45.03;98234.13;5032666;28;20079;-61
2022/02/06 09:39:10;;;;;;;1.70;0.35;;;;;;;23.06;45.03;98231.66;5032285;28;20029;-62
2022/02/06 09:41:46;;;;;;;1.70;0.60;;;;;;;23.06;44.68;98229.72;5032194;28;20032;-62
2022/02/06 09:44:16;;;;;;;0.60;0.32;;;;;;;23.07;45.06;98231.38;5032478;28;20029;-62
2022/02/06 09:46:45;;;;;;;0.93;0.20;;;;;;;23.07;45.10;98236.88;5032225;28;20022;-62
2022/02/06 09:49:10;;;;;;;0.95;0.25;;;;;;;23.07;45.25;98236.88;5032299;28;20261;-62
2022/02/06 09:51:36;;;;;;;0.98;0.22;;;;;;;23.08;44.89;98235.78;5032181;28;20475;-61
2022/02/06 09:54:03;;;;;;;1.08;0.20;;;;;;;23.09;45.14;98244.81;5014510;28;20049;-62
2022/02/06 09:56:32;;;;;;;1.60;0.63;;;;;;;23.09;44.84;98244.81;5032445;28;20028;-62
2022/02/06 09:59:03;;;;;;;1.65;0.30;;;;;;;23.11;44.85;98240.72;5032046;28;20061;-62
2022/02/06 10:01:33;;;;;;;1.17;0.50;;;;;;;23.07;44.86;98253.31;5032074;28;20122;-61
2022/02/06 10:04:05;;;;;;;0.47;0.20;;;;;;;23.08;44.91;98256.88;5031831;28;20100;-62
2022/02/06 10:06:55;;;;;;;0.20;0.10;;;;;;;23.11;45.26;98254.41;5032575;28;20029;-62
2022/02/06 10:09:25;;;;;;;1.10;0.73;;;;;;;23.06;44.66;98251.66;5032182;28;20026;-61
2022/02/06 10:11:55;;;;;;;1.10;0.30;;;;;;;23.15;45.24;98254.72;5032085;28;20025;-62
2022/02/06 10:14:20;;;;;;;1.10;0.30;;;;;;;23.09;44.70;98245.63;5032180;28;20043;-61
2022/02/06 10:16:46;;;;;;;0.95;0.17;;;;;;;23.06;44.92;98240.69;5032279;28;20520;-62
2022/02/06 10:19:15;;;;;;;0.45;0.13;;;;;;;23.11;44.55;98246.19;5031891;28;20079;-62
2022/02/06 10:21:42;;;;;;;0.57;0.20;;;;;;;23.09;44.83;98245.63;5031719;28;20036;-62
2022/02/06 10:26:38;;;;;;;1.15;0.35;;;;;;;23.13;45.44;98247.84;5032160;28;20113;-63
2022/02/06 10:29:36;;;;;;;1.88;0.45;;;;;;;23.16;44.79;98236.34;5032222;28;20056;-62
2022/02/06 10:32:00;;;;;;;0.47;0.17;;;;;;;23.11;44.73;98243.47;5031489;28;20048;-62
2022/02/06 10:34:28;;;;;;;1.23;0.28;;;;;;;23.07;45.22;98239.59;5031511;28;20026;-61
2022/02/06 10:37:18;;;;;;;0.55;0.10;;;;;;;23.16;45.43;98239.09;5031908;28;20473;-62
2022/02/06 10:39:50;;;;;;;1.30;0.30;;;;;;;23.12;44.98;98241.53;5031586;28;20031;-62
2022/02/06 10:42:24;;;;;;;0.88;0.20;;;;;;;23.10;44.81;98236.31;5031915;28;20029;-62
2022/02/06 10:45:09;;;;;;;1.70;0.38;;;;;;;23.14;45.44;98225.66;5014064;28;20032;-62
2022/02/06 10:47:35;;;;;;;0.90;0.30;;;;;;;23.13;44.94;98215.78;5031543;28;20242;-61
2022/02/06 10:50:03;;;;;;;1.60;0.38;;;;;;;23.13;44.97;98220.44;5031861;28;20112;-62
2022/02/06 10:52:29;;;;;;;0.93;0.22;;;;;;;23.16;44.89;98211.69;5033456;28;20030;-61
2022/02/06 10:54:56;;;;;;;0.98;0.35;;;;;;;23.13;44.86;98206.75;5035299;28;20056;-62
2022/02/06 10:57:23;;;;;;;1.42;0.20;;;;;;;23.17;45.06;98202.38;5035399;28;20040;-62
2022/02/06 10:59:53;;;;;;;1.05;0.38;;;;;;;23.19;44.94;98197.47;5035188;28;20022;-62
2022/02/06 11:02:25;;;;;;;1.27;0.30;;;;;;;23.17;44.94;98202.38;5035126;28;20029;-63
2022/02/06 11:05:00;;;;;;;1.63;0.28;;;;;;;23.16;44.78;98201.56;5035218;28;20477;-62
2022/02/06 11:07:25;;;;;;;1.92;0.30;;;;;;;23.15;45.35;98193.59;5035157;28;20095;-62
2022/02/06 11:09:51;;;;;;;1.48;0.43;;;;;;;23.16;45.00;98195.25;5035383;28;20018;-61
2022/02/06 11:12:21;;;;;;;2.25;0.28;;;;;;;23.09;44.89;98192.75;5034910;28;20104;-62
2022/02/06 11:14:50;;;;;;;1.40;0.40;;;;;;;23.14;45.12;98186.47;5017730;28;20436;-62
2022/02/06 11:17:20;;;;;;;0.82;0.22;;;;;;;23.12;45.15;98186.75;5034917;28;20079;-62
2022/02/06 11:20:06;;;;;;;1.02;0.28;;;;;;;23.11;44.78;98185.91;5035046;28;20727;-62
2022/02/06 11:22:32;;;;;;;0.52;0.20;;;;;;;23.17;44.66;98180.44;5034789;28;20473;-62
2022/02/06 11:24:59;;;;;;;0.80;0.30;;;;;;;23.15;45.04;98185.38;5034744;28;20464;-62
2022/02/06 11:27:27;;;;;;;1.35;0.30;;;;;;;23.16;45.24;98178.81;5034858;28;20049;-62
2022/02/06 11:29:54;;;;;;;2.20;0.90;;;;;;;23.14;45.02;98186.47;5034767;28;20424;-62
2022/02/06 11:32:19;;;;;;;0.55;0.20;;;;;;;23.14;44.91;98176.34;5034631;28;20025;-62
2022/02/06 11:34:45;;;;;;;0.85;0.20;;;;;;;23.21;44.55;98170.63;5034856;28;20027;-62
2022/02/06 11:46:07;;;;;;;0.63;0.35;;;;;;;23.24;44.42;98172.84;5034471;28;20041;-62
2022/02/06 11:48:34;;;;;;;1.30;0.35;;;;;;;23.16;45.34;98167.84;5034177;28;20104;-62
2022/02/06 11:50:59;;;;;;;1.35;0.32;;;;;;;23.24;44.72;98170.09;5034321;28;20036;-61
2022/02/06 11:53:37;;;;;;;1.25;0.30;;;;;;;23.21;45.23;98162.41;5034139;28;20057;-62
2022/02/06 11:56:22;;;;;;;2.35;0.30;;;;;;;23.18;44.77;98165.66;5034455;28;20430;-62
2022/02/06 11:58:52;;;;;;;0.95;0.22;;;;;;;23.20;44.85;98168.97;5034122;28;20029;-62
2022/02/06 12:01:17;;;;;;;1.73;0.20;;;;;;;23.23;44.58;98172.00;5034205;28;20037;-62
2022/02/06 12:04:02;;;;;;;1.70;0.30;;;;;;;23.20;44.76;98179.94;5033815;28;20029;-62
2022/02/06 12:06:39;;;;;;;0.90;0.20;;;;;;;23.19;45.13;98173.63;5014275;28;20270;-62
2022/02/06 12:09:04;;;;;;;0.98;0.50;;;;;;;23.22;45.30;98172.28;4996554;28;20026;-62
2022/02/06 12:11:30;;;;;;;0.30;0.17;;;;;;;23.24;44.97;98164.59;5014072;28;20029;-62
2022/02/06 12:14:16;;;;;;;0.30;0.13;;;;;;;23.23;45.14;98162.97;5026593;28;20285;-62
2022/02/06 12:16:51;;;;;;;1.83;0.40;;;;;;;23.18;44.69;98155.56;5033738;28;20060;-61
2022/02/06 12:19:28;;;;;;;1.15;0.28;;;;;;;23.22;44.58;98142.13;5033766;28;20033;-62
2022/02/06 12:21:56;;;;;;;0.52;0.20;;;;;;;23.21;44.65;98148.72;5033821;28;20025;-61
2022/02/06 12:24:41;;;;;;;1.55;0.32;;;;;;;23.26;44.59;98146.81;5033757;28;20025;-62
2022/02/06 12:27:26;;;;;;;0.80;0.40;;;;;;;23.24;44.56;98142.69;5033662;28;20472;-62
2022/02/06 12:30:00;;;;;;;1.75;0.50;;;;;;;23.24;44.59;98137.19;5033652;28;20477;-62
2022/02/06 12:32:33;;;;;;;0.90;0.30;;;;;;;23.24;45.10;98138.03;5025904;28;20393;-62
2022/02/06 12:37:45;;;;;;;0.95;0.28;;;;;;;23.25;44.87;98138.84;5013577;28;20047;-62
2022/02/06 12:40:17;;;;;;;2.65;0.28;;;;;;;23.28;44.80;98135.56;5013697;28;20030;-62
2022/02/06 12:42:48;;;;;;;1.38;0.35;;;;;;;23.22;45.34;98139.41;5013505;28;20293;-62
2022/02/06 12:45:17;;;;;;;1.65;0.43;;;;;;;23.27;45.06;98142.16;5013533;28;20030;-62
2022/02/06 12:47:48;;;;;;;2.13;0.60;;;;;;;23.28;44.71;98152.00;5013337;28;20485;-62
2022/02/06 12:50:16;;;;;;;1.75;0.68;;;;;;;23.28;44.65;98154.75;5013824;28;20378;-62
2022/02/06 12:52:41;;;;;;;1.13;0.35;;;;;;;23.27;45.01;98142.97;4995654;28;20026;-62
2022/02/06 12:55:07;;;;;;;1.10;0.38;;;;;;;23.30;45.25;98141.59;5013204;28;20398;-61
2022/02/06 12:57:47;;;;;;;1.00;0.38;;;;;;;23.27;45.44;98137.50;5013099;28;20375;-61
2022/02/06 13:00:38;;;;;;;2.15;0.40;;;;;;;23.28;44.65;98141.88;5013295;28;20033;-62
2022/02/06 13:03:27;;;;;;;1.40;0.20;;;;;;;23.27;44.91;98147.63;5024504;28;20432;-62
2022/02/06 13:06:15;;;;;;;0.55;0.10;;;;;;;23.26;45.10;98146.81;5033215;28;20059;-61
2022/02/06 13:08:42;;;;;;;1.08;0.38;;;;;;;23.27;44.69;98147.63;5032689;28;20099;-62
2022/02/06 13:11:20;;;;;;;0.98;0.25;;;;;;;23.29;45.45;98146.25;5032745;28;20025;-61
2022/02/06 13:14:18;;;;;;;1.52;0.30;;;;;;;23.31;44.95;98148.72;5032951;28;20056;-62
2022/02/06 13:17:09;;;;;;;1.35;0.20;;;;;;;23.30;44.98;98153.38;5032305;28;20055;-62
2022/02/06 13:25:26;;;;;;;2.85;0.63;;;;;;;23.26;45.01;98138.56;5032793;28;20603;-61
2022/02/06 13:30:40;;;;;;;1.83;0.40;;;;;;;23.27;44.90;98121.03;5032978;28;20441;-62
2022/02/06 13:33:13;;;;;;;2.20;0.70;;;;;;;23.27;45.62;98125.69;5032337;28;20075;-61
2022/02/06 13:35:45;;;;;;;0.47;0.10;;;;;;;23.29;44.92;98118.84;5032295;28;20469;-62
2022/02/06 13:38:16;;;;;;;0.90;0.30;;;;;;;23.30;45.13;98119.69;5032571;28;20025;-61
2022/02/06 13:40:47;;;;;;;1.50;0.30;;;;;;;23.32;44.45;98109.25;5032268;28;20033;-62
2022/02/06 13:43:24;;;;;;;2.05;0.28;;;;;;;23.35;44.84;98111.50;5032381;28;20025;-61
2022/02/06 13:45:54;;;;;;;0.55;0.20;;;;;;;23.32;45.46;98114.75;5032299;28;20040;-62
2022/02/06 13:48:21;;;;;;;2.00;0.60;;;;;;;23.33;45.26;98116.38;5032386;28;20484;-62
2022/02/06 13:50:55;;;;;;;1.05;0.20;;;;;;;23.27;45.19;98114.75;5032224;28;20031;-61
2022/02/06 13:53:24;;;;;;;1.35;0.57;;;;;;;23.30;44.77;98108.72;5032222;28;20041;-62
2022/02/06 13:55:53;;;;;;;0.82;0.25;;;;;;;23.29;45.15;98113.38;5032223;28;20057;-62
2022/02/06 13:58:23;;;;;;;2.05;0.57;;;;;;;23.28;45.39;98110.91;5032246;28;20037;-62
2022/02/06 14:00:57;;;;;;;0.63;0.20;;;;;;;23.26;45.52;98113.09;5032100;28;20033;-62
2022/02/06 14:03:23;;;;;;;1.63;0.38;;;;;;;23.30;45.26;98097.75;5031968;28;20029;-62
2022/02/06 14:05:50;;;;;;;2.17;0.45;;;;;;;23.33;44.78;98097.19;5031799;28;20385;-61
2022/02/06 14:08:18;;;;;;;2.17;0.32;;;;;;;23.31;45.42;98099.41;5032266;28;20076;-62
2022/02/06 14:11:01;;;;;;;0.75;0.28;;;;;;;23.31;44.92;98104.88;5014275;28;20021;-61
2022/02/06 14:13:28;;;;;;;1.42;0.28;;;;;;;23.30;44.95;98104.06;5032012;28;20040;-62